createdAt,value
2016-11-20T00:00:42.443Z,6.32
2016-11-20T00:01:42.734Z,6.3
2016-11-20T00:02:42.399Z,6.3
2016-11-20T00:03:42.698Z,6.3
2016-11-20T00:04:42.366Z,6.29
2016-11-20T00:05:42.344Z,6.35
2016-11-20T00:06:42.322Z,6.28
2016-11-20T00:07:42.309Z,6.29
2016-11-20T00:08:42.288Z,6.32
2016-11-20T00:09:42.269Z,6.28
2016-11-20T00:10:42.249Z,6.3
2016-11-20T00:11:42.547Z,6.38
2016-11-20T00:12:42.210Z,6.35
2016-11-20T00:13:42.188Z,6.36
2016-11-20T00:14:42.489Z,6.33
2016-11-20T00:15:42.465Z,6.4
2016-11-20T00:16:42.137Z,6.32
2016-11-20T00:17:42.122Z,6.35
2016-11-20T00:18:42.099Z,6.3
2016-11-20T00:19:42.076Z,6.32
2016-11-20T00:20:42.414Z,6.32
2016-11-20T00:21:42.040Z,6.28
2016-11-20T00:22:42.023Z,6.33
2016-11-20T00:23:42.007Z,6.35
2016-11-20T00:24:41.988Z,6.29
2016-11-20T00:25:41.967Z,6.3
2016-11-20T00:26:41.948Z,6.33
2016-11-20T00:27:41.929Z,6.3
2016-11-20T00:28:42.222Z,6.22
2016-11-20T00:29:42.205Z,6.25
2016-11-20T00:30:41.866Z,6.22
2016-11-20T00:31:41.860Z,6.19
2016-11-20T00:32:41.834Z,6.16
2016-11-20T00:33:41.812Z,6.19
2016-11-20T00:34:41.798Z,6.13
2016-11-20T00:35:42.091Z,6.07
2016-11-20T00:36:41.762Z,6.06
2016-11-20T00:37:41.735Z,6.04
2016-11-20T00:38:41.722Z,6.25
2016-11-20T00:39:41.706Z,6.22
2016-11-20T00:40:41.684Z,6.21
2016-11-20T00:41:41.668Z,6.16
2016-11-20T00:42:41.647Z,6.26
2016-11-20T00:43:41.625Z,6.19
2016-11-20T00:44:41.606Z,6.22
2016-11-20T00:45:41.592Z,6.22
2016-11-20T00:46:41.569Z,6.19
2016-11-20T00:47:41.552Z,6.11
2016-11-20T00:48:41.531Z,6.22
2016-11-20T00:49:41.510Z,6.21
2016-11-20T00:50:41.493Z,6.33
2016-11-20T00:51:41.473Z,6.38
2016-11-20T00:52:41.453Z,6.29
2016-11-20T00:53:41.759Z,6.32
2016-11-20T00:54:41.415Z,6.33
2016-11-20T00:55:41.710Z,6.33
2016-11-20T00:56:41.419Z,6.29
2016-11-20T00:57:41.367Z,6.3
2016-11-20T00:58:41.342Z,6.28
2016-11-20T00:59:41.332Z,6.29
2016-11-20T01:00:41.303Z,6.35
2016-11-20T01:01:41.289Z,6.35
2016-11-20T01:02:41.271Z,6.3
2016-11-20T01:03:41.253Z,6.25
2016-11-20T01:04:41.233Z,6.29
2016-11-20T01:05:41.209Z,6.32
2016-11-20T01:06:41.193Z,6.33
2016-11-20T01:07:41.172Z,6.38
2016-11-20T01:08:41.162Z,6.33
2016-11-20T01:09:41.138Z,6.41
2016-11-20T01:10:41.111Z,6.35
2016-11-20T01:11:41.100Z,6.33
2016-11-20T01:12:41.079Z,6.29
2016-11-20T01:13:41.065Z,6.36
2016-11-20T01:14:41.042Z,6.32
2016-11-20T01:15:41.027Z,6.33
2016-11-20T01:16:41.004Z,6.35
2016-11-20T01:17:41.295Z,6.4
2016-11-20T01:18:40.964Z,6.43
2016-11-20T01:19:40.947Z,6.46
2016-11-20T01:20:40.929Z,6.47
2016-11-20T01:21:40.904Z,6.5
2016-11-20T01:22:40.892Z,6.47
2016-11-20T01:23:40.874Z,6.46
2016-11-20T01:24:40.854Z,6.33
2016-11-20T01:25:40.838Z,6.4
2016-11-20T01:26:40.818Z,6.43
2016-11-20T01:27:40.795Z,6.33
2016-11-20T01:28:40.777Z,6.26
2016-11-20T01:29:40.762Z,6.33
2016-11-20T01:30:40.741Z,6.26
2016-11-20T01:31:40.723Z,6.29
2016-11-20T01:32:41.016Z,6.28
2016-11-20T01:33:40.678Z,6.33
2016-11-20T01:34:40.668Z,6.29
2016-11-20T01:35:40.650Z,6.26
2016-11-20T01:36:40.624Z,6.26
2016-11-20T01:37:40.608Z,6.28
2016-11-20T01:38:40.587Z,6.28
2016-11-20T01:39:40.600Z,6.25
2016-11-20T01:40:40.801Z,6.22
2016-11-20T01:41:40.843Z,6.28
2016-11-20T01:42:40.516Z,6.32
2016-11-20T01:43:40.496Z,6.29
2016-11-20T01:44:40.478Z,6.28
2016-11-20T01:45:40.464Z,6.29
2016-11-20T01:46:40.440Z,6.3
2016-11-20T01:47:40.737Z,6.32
2016-11-20T01:48:41.040Z,6.4
2016-11-20T01:49:40.384Z,6.36
2016-11-20T01:50:40.684Z,6.29
2016-11-20T01:51:40.347Z,6.36
2016-11-20T01:52:40.327Z,6.36
2016-11-20T01:53:40.310Z,6.36
2016-11-20T01:54:40.295Z,6.36
2016-11-20T01:55:40.276Z,6.4
2016-11-20T01:56:40.257Z,6.35
2016-11-20T01:57:40.268Z,6.46
2016-11-20T01:58:40.218Z,6.36
2016-11-20T01:59:40.202Z,6.38
2016-11-20T02:00:40.229Z,6.36
2016-11-20T02:01:40.162Z,6.32
2016-11-20T02:02:40.478Z,6.33
2016-11-20T02:03:40.444Z,6.4
2016-11-20T02:04:40.113Z,6.41
2016-11-20T02:05:40.091Z,6.46
2016-11-20T02:06:40.094Z,6.48
2016-11-20T02:07:40.057Z,6.47
2016-11-20T02:08:40.042Z,6.47
2016-11-20T02:09:40.027Z,6.47
2016-11-20T02:10:39.996Z,6.48
2016-11-20T02:11:39.975Z,6.59
2016-11-20T02:12:40.275Z,6.58
2016-11-20T02:13:39.940Z,6.51
2016-11-20T02:14:39.927Z,6.54
2016-11-20T02:15:39.903Z,6.48
2016-11-20T02:16:39.936Z,6.53
2016-11-20T02:17:39.866Z,6.46
2016-11-20T02:18:40.167Z,6.44
2016-11-20T02:19:39.836Z,6.47
2016-11-20T02:20:39.846Z,6.53
2016-11-20T02:21:39.795Z,6.35
2016-11-20T02:22:39.773Z,6.41
2016-11-20T02:23:39.760Z,6.44
2016-11-20T02:24:39.740Z,6.46
2016-11-20T02:25:39.726Z,6.47
2016-11-20T02:26:39.704Z,6.5
2016-11-20T02:27:39.687Z,6.53
2016-11-20T02:28:39.667Z,6.51
2016-11-20T02:29:39.651Z,6.56
2016-11-20T02:30:39.946Z,6.56
2016-11-20T02:31:39.615Z,6.61
2016-11-20T02:32:39.910Z,6.53
2016-11-20T02:33:39.574Z,6.59
2016-11-20T02:34:39.555Z,6.63
2016-11-20T02:35:39.541Z,6.54
2016-11-20T02:36:39.518Z,6.56
2016-11-20T02:37:39.504Z,6.51
2016-11-20T02:38:39.488Z,6.58
2016-11-20T02:39:39.465Z,6.56
2016-11-20T02:40:39.762Z,6.56
2016-11-20T02:41:39.436Z,6.54
2016-11-20T02:42:39.411Z,6.56
2016-11-20T02:43:39.708Z,6.5
2016-11-20T02:44:39.373Z,6.58
2016-11-20T02:45:39.356Z,6.53
2016-11-20T02:46:39.335Z,6.53
2016-11-20T02:47:39.330Z,6.58
2016-11-20T02:48:39.297Z,6.54
2016-11-20T02:49:39.283Z,6.48
2016-11-20T02:50:39.269Z,6.54
2016-11-20T02:51:39.240Z,6.53
2016-11-20T02:52:39.226Z,6.54
2016-11-20T02:53:39.209Z,6.5
2016-11-20T02:54:39.190Z,6.53
2016-11-20T02:55:39.172Z,6.53
2016-11-20T02:56:39.155Z,6.58
2016-11-20T02:57:39.139Z,6.58
2016-11-20T02:58:39.115Z,6.54
2016-11-20T02:59:39.129Z,6.53
2016-11-20T03:00:39.078Z,6.54
2016-11-20T03:01:39.062Z,6.54
2016-11-20T03:02:39.046Z,6.61
2016-11-20T03:03:39.025Z,6.53
2016-11-20T03:04:39.006Z,6.53
2016-11-20T03:05:38.988Z,6.5
2016-11-20T03:06:38.975Z,6.51
2016-11-20T03:07:38.947Z,6.53
2016-11-20T03:08:38.933Z,6.5
2016-11-20T03:09:38.911Z,6.46
2016-11-20T03:10:38.899Z,6.5
2016-11-20T03:11:39.195Z,6.5
2016-11-20T03:12:38.866Z,6.59
2016-11-20T03:13:38.900Z,6.58
2016-11-20T03:14:38.828Z,6.53
2016-11-20T03:15:38.805Z,6.58
2016-11-20T03:16:39.108Z,6.54
2016-11-20T03:17:38.766Z,6.56
2016-11-20T03:18:38.752Z,6.56
2016-11-20T03:19:38.732Z,6.59
2016-11-20T03:20:38.714Z,6.47
2016-11-20T03:21:38.698Z,6.5
2016-11-20T03:22:38.675Z,6.53
2016-11-20T03:23:38.659Z,6.54
2016-11-20T03:24:38.639Z,6.54
2016-11-20T03:25:38.621Z,6.56
2016-11-20T03:26:38.603Z,6.54
2016-11-20T03:27:38.894Z,6.59
2016-11-20T03:28:38.572Z,6.59
2016-11-20T03:29:38.550Z,6.62
2016-11-20T03:30:38.530Z,6.63
2016-11-20T03:31:38.517Z,6.62
2016-11-20T03:32:38.492Z,6.5
2016-11-20T03:33:38.475Z,6.53
2016-11-20T03:34:38.453Z,6.56
2016-11-20T03:35:38.439Z,6.5
2016-11-20T03:36:38.420Z,6.58
2016-11-20T03:37:38.401Z,6.62
2016-11-20T03:38:38.414Z,6.51
2016-11-20T03:39:38.372Z,6.5
2016-11-20T03:40:38.863Z,6.48
2016-11-20T03:41:38.328Z,6.51
2016-11-20T03:42:38.313Z,6.59
2016-11-20T03:43:38.291Z,6.54
2016-11-20T03:44:38.595Z,6.56
2016-11-20T03:45:38.252Z,6.53
2016-11-20T03:46:38.233Z,6.51
2016-11-20T03:47:38.219Z,6.48
2016-11-20T03:48:38.200Z,6.44
2016-11-20T03:49:38.178Z,6.35
2016-11-20T03:50:38.794Z,6.38
2016-11-20T03:51:38.485Z,6.4
2016-11-20T03:52:38.137Z,6.4
2016-11-20T03:53:38.419Z,6.4
2016-11-20T03:54:38.091Z,6.36
2016-11-20T03:55:38.070Z,6.43
2016-11-20T03:56:38.053Z,6.29
2016-11-20T03:57:38.084Z,6.29
2016-11-20T03:58:38.017Z,6.33
2016-11-20T03:59:37.999Z,6.43
2016-11-20T04:00:37.981Z,6.35
2016-11-20T04:01:37.962Z,6.46
2016-11-20T04:02:37.940Z,6.47
2016-11-20T04:03:37.920Z,6.48
2016-11-20T04:04:37.906Z,6.59
2016-11-20T04:05:38.197Z,6.51
2016-11-20T04:06:38.179Z,6.54
2016-11-20T04:07:37.850Z,6.54
2016-11-20T04:08:37.826Z,6.53
2016-11-20T04:09:37.838Z,6.59
2016-11-20T04:10:37.792Z,6.62
2016-11-20T04:11:37.795Z,6.65
2016-11-20T04:12:37.756Z,6.65
2016-11-20T04:13:37.770Z,6.53
2016-11-20T04:14:37.716Z,6.58
2016-11-20T04:15:37.698Z,6.47
2016-11-20T04:16:37.996Z,6.62
2016-11-20T04:17:37.665Z,6.62
2016-11-20T04:18:37.647Z,6.61
2016-11-20T04:19:37.623Z,6.58
2016-11-20T04:20:37.609Z,6.63
2016-11-20T04:21:37.900Z,6.62
2016-11-20T04:22:37.566Z,6.76
2016-11-20T04:23:37.865Z,6.79
2016-11-20T04:24:37.529Z,6.76
2016-11-20T04:25:37.515Z,6.77
2016-11-20T04:26:37.496Z,6.69
2016-11-20T04:27:37.479Z,6.72
2016-11-20T04:28:37.458Z,6.71
2016-11-20T04:29:38.078Z,6.76
2016-11-20T04:30:37.420Z,6.8
2016-11-20T04:31:37.403Z,6.8
2016-11-20T04:32:37.707Z,6.83
2016-11-20T04:33:37.375Z,6.86
2016-11-20T04:34:37.344Z,6.79
2016-11-20T04:35:37.329Z,6.86
2016-11-20T04:36:37.626Z,6.89
2016-11-20T04:37:37.301Z,6.87
2016-11-20T04:38:37.282Z,6.94
2016-11-20T04:39:37.258Z,7.02
2016-11-20T04:40:37.240Z,6.95
2016-11-20T04:41:37.217Z,6.95
2016-11-20T04:42:37.203Z,6.99
2016-11-20T04:43:37.183Z,6.99
2016-11-20T04:44:37.163Z,6.97
2016-11-20T04:45:37.150Z,6.99
2016-11-20T04:46:37.128Z,6.97
2016-11-20T04:47:37.128Z,6.97
2016-11-20T04:48:37.098Z,6.98
2016-11-20T04:49:37.078Z,6.98
2016-11-20T04:50:37.051Z,6.97
2016-11-20T04:51:37.037Z,6.95
2016-11-20T04:52:37.018Z,6.95
2016-11-20T04:53:37.008Z,7.02
2016-11-20T04:54:36.977Z,7.04
2016-11-20T04:55:36.977Z,7.05
2016-11-20T04:56:37.253Z,6.97
2016-11-20T04:57:36.926Z,7.07
2016-11-20T04:58:36.906Z,7.12
2016-11-20T04:59:36.891Z,7.12
2016-11-20T05:00:36.866Z,7.16
2016-11-20T05:01:36.852Z,7.13
2016-11-20T05:02:36.851Z,7.12
2016-11-20T05:03:36.827Z,7.2
2016-11-20T05:04:36.799Z,7.13
2016-11-20T05:05:36.778Z,7.12
2016-11-20T05:06:37.077Z,7.24
2016-11-20T05:07:37.103Z,7.32
2016-11-20T05:08:36.774Z,7.4
2016-11-20T05:09:36.706Z,7.32
2016-11-20T05:10:36.697Z,7.29
2016-11-20T05:11:36.667Z,7.24
2016-11-20T05:12:36.669Z,7.27
2016-11-20T05:13:36.941Z,7.35
2016-11-20T05:14:36.613Z,7.32
2016-11-20T05:15:36.593Z,7.34
2016-11-20T05:16:36.576Z,7.34
2016-11-20T05:17:36.556Z,7.29
2016-11-20T05:18:36.854Z,7.23
2016-11-20T05:19:36.523Z,7.34
2016-11-20T05:20:36.501Z,7.29
2016-11-20T05:21:36.796Z,7.27
2016-11-20T05:22:36.471Z,7.27
2016-11-20T05:23:36.478Z,7.32
2016-11-20T05:24:36.445Z,7.29
2016-11-20T05:25:36.414Z,7.38
2016-11-20T05:26:36.399Z,7.44
2016-11-20T05:27:36.378Z,7.45
2016-11-20T05:28:36.363Z,7.35
2016-11-20T05:29:36.343Z,7.45
2016-11-20T05:30:36.322Z,7.4
2016-11-20T05:31:36.302Z,7.42
2016-11-20T05:32:36.281Z,7.37
2016-11-20T05:33:36.266Z,7.44
2016-11-20T05:34:36.283Z,7.41
2016-11-20T05:35:36.226Z,7.44
2016-11-20T05:36:36.216Z,7.42
2016-11-20T05:37:36.192Z,7.44
2016-11-20T05:38:36.177Z,7.44
2016-11-20T05:39:36.153Z,7.37
2016-11-20T05:40:36.548Z,7.41
2016-11-20T05:41:36.122Z,7.38
2016-11-20T05:42:36.109Z,7.4
2016-11-20T05:43:36.086Z,7.44
2016-11-20T05:44:36.066Z,7.45
2016-11-20T05:45:36.067Z,7.49
2016-11-20T05:46:36.030Z,7.45
2016-11-20T05:47:36.068Z,7.41
2016-11-20T05:48:35.996Z,7.56
2016-11-20T05:49:35.978Z,7.52
2016-11-20T05:50:35.957Z,7.58
2016-11-20T05:51:35.941Z,7.52
2016-11-20T05:52:35.923Z,7.59
2016-11-20T05:53:35.905Z,7.55
2016-11-20T05:54:35.886Z,7.52
2016-11-20T05:55:35.871Z,7.55
2016-11-20T05:56:35.856Z,7.63
2016-11-20T05:57:35.831Z,7.53
2016-11-20T05:58:36.442Z,7.5
2016-11-20T05:59:36.116Z,7.56
2016-11-20T06:00:35.778Z,7.56
2016-11-20T06:01:35.768Z,7.55
2016-11-20T06:02:35.738Z,7.55
2016-11-20T06:03:35.720Z,7.6
2016-11-20T06:04:35.713Z,7.62
2016-11-20T06:05:35.688Z,7.62
2016-11-20T06:06:35.672Z,7.59
2016-11-20T06:07:35.649Z,7.71
2016-11-20T06:08:35.632Z,7.67
2016-11-20T06:09:35.650Z,7.74
2016-11-20T06:10:35.599Z,7.67
2016-11-20T06:11:35.578Z,7.69
2016-11-20T06:12:35.568Z,7.69
2016-11-20T06:13:35.594Z,7.67
2016-11-20T06:14:35.529Z,7.67
2016-11-20T06:15:35.511Z,7.69
2016-11-20T06:16:35.836Z,7.74
2016-11-20T06:17:35.470Z,7.78
2016-11-20T06:18:35.457Z,7.71
2016-11-20T06:19:35.438Z,7.72
2016-11-20T06:20:35.423Z,7.69
2016-11-20T06:21:35.403Z,7.77
2016-11-20T06:22:35.699Z,7.72
2016-11-20T06:23:35.689Z,7.71
2016-11-20T06:24:35.348Z,7.72
2016-11-20T06:25:35.329Z,7.77
2016-11-20T06:26:35.330Z,7.82
2016-11-20T06:27:35.623Z,7.71
2016-11-20T06:28:35.285Z,7.74
2016-11-20T06:29:35.259Z,7.75
2016-11-20T06:30:35.255Z,7.74
2016-11-20T06:31:35.228Z,7.85
2016-11-20T06:32:35.209Z,7.72
2016-11-20T06:33:35.195Z,7.84
2016-11-20T06:34:35.168Z,7.85
2016-11-20T06:35:35.156Z,7.89
2016-11-20T06:36:35.447Z,7.93
2016-11-20T06:37:35.118Z,7.92
2016-11-20T06:38:35.100Z,7.87
2016-11-20T06:39:35.082Z,7.93
2016-11-20T06:40:35.379Z,7.89
2016-11-20T06:41:35.041Z,7.85
2016-11-20T06:42:35.028Z,7.87
2016-11-20T06:43:35.324Z,7.89
2016-11-20T06:44:34.994Z,7.96
2016-11-20T06:45:34.972Z,7.97
2016-11-20T06:46:34.956Z,7.93
2016-11-20T06:47:35.255Z,8.02
2016-11-20T06:48:34.927Z,8.04
2016-11-20T06:49:34.904Z,8.17
2016-11-20T06:50:34.914Z,8.14
2016-11-20T06:51:34.872Z,8.2
2016-11-20T06:52:34.850Z,8.21
2016-11-20T06:53:34.834Z,8.22
2016-11-20T06:54:34.816Z,8.25
2016-11-20T06:55:34.796Z,8.26
2016-11-20T06:56:34.779Z,8.35
2016-11-20T06:57:34.770Z,8.39
2016-11-20T06:58:34.746Z,8.32
2016-11-20T06:59:34.732Z,8.22
2016-11-20T07:00:34.756Z,8.37
2016-11-20T07:01:35.015Z,8.32
2016-11-20T07:02:34.670Z,8.45
2016-11-20T07:03:34.654Z,8.48
2016-11-20T07:04:34.647Z,8.47
2016-11-20T07:05:34.941Z,8.54
2016-11-20T07:06:34.611Z,8.54
2016-11-20T07:07:34.584Z,8.54
2016-11-20T07:08:34.931Z,8.6
2016-11-20T07:09:34.555Z,8.57
2016-11-20T07:10:34.540Z,8.57
2016-11-20T07:11:34.833Z,8.71
2016-11-20T07:12:34.814Z,8.65
2016-11-20T07:13:34.496Z,8.71
2016-11-20T07:14:34.492Z,8.78
2016-11-20T07:15:34.452Z,8.79
2016-11-20T07:16:34.427Z,8.9
2016-11-20T07:17:34.413Z,8.72
2016-11-20T07:18:34.718Z,8.75
2016-11-20T07:19:34.376Z,8.71
2016-11-20T07:20:34.361Z,8.87
2016-11-20T07:21:34.391Z,8.83
2016-11-20T07:22:34.321Z,8.86
2016-11-20T07:23:34.319Z,8.9
2016-11-20T07:24:34.292Z,8.79
2016-11-20T07:25:34.593Z,8.93
2016-11-20T07:26:34.257Z,8.83
2016-11-20T07:27:34.243Z,8.88
2016-11-20T07:28:34.224Z,8.84
2016-11-20T07:29:34.209Z,8.78
2016-11-20T07:30:34.191Z,8.75
2016-11-20T07:31:34.169Z,8.79
2016-11-20T07:32:34.481Z,8.84
2016-11-20T07:33:34.138Z,8.88
2016-11-20T07:34:34.120Z,8.83
2016-11-20T07:35:34.414Z,8.81
2016-11-20T07:36:34.089Z,8.87
2016-11-20T07:37:34.385Z,8.87
2016-11-20T07:38:34.054Z,8.84
2016-11-20T07:39:34.031Z,8.84
2016-11-20T07:40:34.017Z,8.87
2016-11-20T07:41:34.002Z,8.84
2016-11-20T07:42:33.983Z,8.79
2016-11-20T07:43:33.961Z,8.86
2016-11-20T07:44:33.946Z,8.9
2016-11-20T07:45:33.985Z,8.9
2016-11-20T07:46:33.916Z,8.9
2016-11-20T07:47:33.903Z,8.94
2016-11-20T07:48:34.230Z,8.94
2016-11-20T07:49:34.187Z,8.84
2016-11-20T07:50:33.846Z,8.86
2016-11-20T07:51:33.823Z,8.88
2016-11-20T07:52:33.808Z,8.88
2016-11-20T07:53:34.113Z,8.86
2016-11-20T07:54:34.087Z,8.93
2016-11-20T07:55:33.766Z,8.93
2016-11-20T07:56:33.748Z,8.96
2016-11-20T07:57:33.727Z,8.99
2016-11-20T07:58:33.708Z,9.02
2016-11-20T07:59:33.695Z,9.09
2016-11-20T08:00:33.675Z,9.09
2016-11-20T08:01:33.653Z,9.09
2016-11-20T08:02:33.954Z,9.15
2016-11-20T08:03:33.622Z,9.15
2016-11-20T08:04:33.610Z,9.2
2016-11-20T08:05:33.588Z,9.15
2016-11-20T08:06:33.601Z,9.25
2016-11-20T08:07:33.551Z,9.24
2016-11-20T08:08:33.541Z,9.35
2016-11-20T08:09:33.528Z,9.31
2016-11-20T08:10:33.508Z,9.38
2016-11-20T08:11:33.487Z,9.4
2016-11-20T08:12:33.471Z,9.45
2016-11-20T08:13:33.455Z,9.39
2016-11-20T08:14:33.438Z,9.38
2016-11-20T08:15:33.419Z,9.52
2016-11-20T08:16:33.401Z,9.39
2016-11-20T08:17:33.394Z,9.49
2016-11-20T08:18:33.378Z,9.57
2016-11-20T08:19:33.352Z,9.6
2016-11-20T08:20:33.336Z,9.58
2016-11-20T08:21:33.324Z,9.68
2016-11-20T08:22:33.303Z,9.71
2016-11-20T08:23:33.285Z,9.71
2016-11-20T08:24:33.268Z,9.73
2016-11-20T08:25:33.249Z,9.73
2016-11-20T08:26:33.238Z,9.6
2016-11-20T08:27:33.852Z,9.35
2016-11-20T08:28:33.213Z,9.15
2016-11-20T08:29:33.492Z,8.96
2016-11-20T08:30:33.168Z,8.96
2016-11-20T08:31:33.158Z,9.16
2016-11-20T08:32:33.445Z,9.12
2016-11-20T08:33:33.114Z,9.05
2016-11-20T08:34:33.099Z,9.16
2016-11-20T08:35:33.089Z,9.27
2016-11-20T08:36:33.068Z,9.4
2016-11-20T08:37:33.369Z,9.4
2016-11-20T08:38:33.030Z,9.28
2016-11-20T08:39:33.333Z,9.21
2016-11-20T08:40:33.000Z,8.93
2016-11-20T08:41:32.986Z,8.55
2016-11-20T08:42:32.977Z,8.26
2016-11-20T08:43:32.951Z,8.25
2016-11-20T08:44:32.928Z,7.92
2016-11-20T08:45:32.913Z,7.84
2016-11-20T08:46:32.891Z,7.77
2016-11-20T08:47:32.878Z,7.78
2016-11-20T08:48:33.170Z,7.78
2016-11-20T08:49:32.847Z,7.74
2016-11-20T08:50:33.137Z,7.63
2016-11-20T08:51:32.809Z,7.74
2016-11-20T08:52:32.789Z,7.66
2016-11-20T08:53:32.776Z,7.55
2016-11-20T08:54:32.751Z,7.53
2016-11-20T08:55:33.050Z,7.52
2016-11-20T08:56:32.732Z,7.5
2016-11-20T08:57:32.696Z,7.47
2016-11-20T08:58:33.012Z,7.49
2016-11-20T08:59:32.666Z,7.38
2016-11-20T09:00:32.648Z,7.44
2016-11-20T09:01:32.631Z,7.5
2016-11-20T09:02:32.610Z,7.49
2016-11-20T09:03:32.608Z,7.47
2016-11-20T09:04:32.574Z,7.45
2016-11-20T09:05:32.552Z,7.42
2016-11-20T09:06:32.846Z,7.45
2016-11-20T09:07:32.835Z,7.5
2016-11-20T09:08:32.505Z,7.37
2016-11-20T09:09:32.489Z,7.35
2016-11-20T09:10:32.475Z,7.29
2016-11-20T09:11:32.453Z,7.32
2016-11-20T09:12:32.429Z,7.32
2016-11-20T09:13:32.730Z,7.26
2016-11-20T09:14:32.412Z,7.2
2016-11-20T09:15:32.380Z,7.27
2016-11-20T09:16:32.361Z,7.26
2016-11-20T09:17:32.334Z,7.23
2016-11-20T09:18:32.314Z,7.29
2016-11-20T09:19:32.303Z,7.35
2016-11-20T09:20:32.281Z,7.26
2016-11-20T09:21:32.304Z,7.37
2016-11-20T09:22:32.252Z,7.44
2016-11-20T09:23:32.542Z,7.42
2016-11-20T09:24:32.207Z,7.49
2016-11-20T09:25:32.191Z,7.59
2016-11-20T09:26:32.172Z,7.72
2016-11-20T09:27:32.154Z,7.87
2016-11-20T09:28:32.133Z,7.85
2016-11-20T09:29:32.442Z,7.97
2016-11-20T09:30:32.097Z,8.02
2016-11-20T09:31:32.081Z,8.04
2016-11-20T09:32:32.383Z,8.03
2016-11-20T09:33:32.373Z,8.15
2016-11-20T09:34:32.028Z,8.17
2016-11-20T09:35:32.016Z,8.36
2016-11-20T09:36:31.988Z,8.32
2016-11-20T09:37:31.975Z,8.42
2016-11-20T09:38:31.958Z,8.53
2016-11-20T09:39:31.938Z,8.63
2016-11-20T09:40:31.919Z,8.75
2016-11-20T09:41:32.121Z,8.76
2016-11-20T09:42:31.885Z,8.83
2016-11-20T09:43:31.867Z,8.94
2016-11-20T09:44:31.863Z,8.94
2016-11-20T09:45:31.848Z,9.15
2016-11-20T09:46:31.820Z,9.15
2016-11-20T09:47:31.802Z,9.23
2016-11-20T09:48:31.813Z,9.25
2016-11-20T09:49:31.770Z,9.39
2016-11-20T09:50:31.757Z,9.42
2016-11-20T09:51:31.796Z,9.6
2016-11-20T09:52:31.749Z,9.76
2016-11-20T09:53:31.703Z,9.75
2016-11-20T09:54:31.684Z,9.71
2016-11-20T09:55:31.675Z,9.68
2016-11-20T09:56:31.654Z,9.64
2016-11-20T09:57:31.956Z,9.6
2016-11-20T09:58:31.631Z,9.71
2016-11-20T09:59:31.608Z,9.89
2016-11-20T10:00:31.594Z,9.91
2016-11-20T10:01:31.571Z,9.97
2016-11-20T10:02:31.557Z,9.94
2016-11-20T10:03:31.542Z,9.94
2016-11-20T10:04:31.528Z,9.88
2016-11-20T10:05:31.514Z,10.06
2016-11-20T10:06:31.494Z,10.06
2016-11-20T10:07:31.475Z,9.96
2016-11-20T10:08:31.463Z,9.96
2016-11-20T10:09:31.447Z,9.94
2016-11-20T10:10:31.432Z,9.89
2016-11-20T10:11:31.731Z,10.06
2016-11-20T10:12:31.398Z,10.1
2016-11-20T10:13:31.742Z,10.25
2016-11-20T10:14:32.010Z,10.37
2016-11-20T10:15:31.360Z,10.4
2016-11-20T10:16:31.334Z,10.44
2016-11-20T10:17:31.317Z,10.52
2016-11-20T10:18:31.307Z,10.39
2016-11-20T10:19:31.296Z,10.53
2016-11-20T10:20:31.272Z,10.53
2016-11-20T10:21:31.252Z,10.68
2016-11-20T10:22:31.255Z,10.68
2016-11-20T10:23:31.233Z,10.86
2016-11-20T10:24:31.261Z,11.01
2016-11-20T10:25:31.193Z,11.02
2016-11-20T10:26:31.176Z,11.01
2016-11-20T10:27:31.159Z,10.94
2016-11-20T10:28:31.460Z,10.77
2016-11-20T10:29:31.456Z,10.8
2016-11-20T10:30:31.480Z,10.8
2016-11-20T10:31:31.109Z,10.74
2016-11-20T10:32:31.406Z,10.71
2016-11-20T10:33:31.072Z,10.66
2016-11-20T10:34:31.058Z,10.66
2016-11-20T10:35:31.052Z,10.74
2016-11-20T10:36:31.029Z,10.76
2016-11-20T10:37:31.012Z,10.83
2016-11-20T10:38:30.998Z,10.71
2016-11-20T10:39:30.982Z,10.78
2016-11-20T10:40:30.965Z,10.98
2016-11-20T10:41:31.268Z,10.88
2016-11-20T10:42:30.944Z,10.89
2016-11-20T10:43:30.919Z,10.83
2016-11-20T10:44:30.908Z,10.95
2016-11-20T10:45:30.890Z,10.95
2016-11-20T10:46:30.880Z,10.96
2016-11-20T10:47:31.178Z,10.96
2016-11-20T10:48:30.847Z,11.1
2016-11-20T10:49:31.148Z,11.09
2016-11-20T10:50:31.131Z,11.27
2016-11-20T10:51:31.117Z,11.27
2016-11-20T10:52:30.783Z,11.24
2016-11-20T10:53:30.775Z,11.19
2016-11-20T10:54:30.761Z,11.19
2016-11-20T10:55:30.775Z,11.21
2016-11-20T10:56:30.732Z,11.19
2016-11-20T10:57:30.720Z,11.24
2016-11-20T10:58:30.700Z,11.19
2016-11-20T10:59:31.005Z,11.32
2016-11-20T11:00:30.664Z,11.34
2016-11-20T11:01:30.646Z,11.35
2016-11-20T11:02:30.950Z,11.19
2016-11-20T11:03:30.620Z,11.29
2016-11-20T11:04:30.605Z,11.47
2016-11-20T11:05:30.591Z,11.52
2016-11-20T11:06:30.574Z,11.89
2016-11-20T11:07:30.560Z,12.01
2016-11-20T11:08:30.549Z,12.04
2016-11-20T11:09:30.527Z,12.09
2016-11-20T11:10:30.828Z,11.99
2016-11-20T11:11:30.508Z,11.89
2016-11-20T11:12:30.487Z,12.09
2016-11-20T11:13:30.790Z,12.05
2016-11-20T11:14:30.460Z,12.48
2016-11-20T11:15:30.446Z,12.66
2016-11-20T11:16:30.438Z,12.97
2016-11-20T11:17:30.733Z,12.87
2016-11-20T11:18:30.408Z,12.96
2016-11-20T11:19:30.392Z,13
2016-11-20T11:20:30.382Z,12.64
2016-11-20T11:21:30.376Z,12.67
2016-11-20T11:22:30.355Z,12.62
2016-11-20T11:23:30.343Z,12.51
2016-11-20T11:24:30.337Z,12.48
2016-11-20T11:25:30.317Z,12.59
2016-11-20T11:26:30.306Z,12.51
2016-11-20T11:27:30.294Z,12.49
2016-11-20T11:28:30.288Z,12.63
2016-11-20T11:29:30.632Z,12.63
2016-11-20T11:30:30.256Z,12.48
2016-11-20T11:31:30.243Z,12.49
2016-11-20T11:32:30.228Z,12.49
2016-11-20T11:33:30.213Z,12.45
2016-11-20T11:34:30.201Z,12.46
2016-11-20T11:35:30.229Z,12.48
2016-11-20T11:36:30.507Z,12.37
2016-11-20T11:37:30.164Z,12.42
2016-11-20T11:38:30.670Z,12.52
2016-11-20T11:39:30.146Z,12.63
2016-11-20T11:40:30.171Z,12.74
2016-11-20T11:41:30.629Z,12.84
2016-11-20T11:42:30.099Z,12.96
2016-11-20T11:43:30.408Z,13.12
2016-11-20T11:44:30.389Z,13.18
2016-11-20T11:45:30.067Z,13.25
2016-11-20T11:46:30.051Z,13.33
2016-11-20T11:47:30.035Z,13.37
2016-11-20T11:48:30.019Z,13.36
2016-11-20T11:49:30.044Z,13.47
2016-11-20T11:50:29.998Z,13.44
2016-11-20T11:51:29.978Z,13.54
2016-11-20T11:52:29.966Z,13.8
2016-11-20T11:53:29.964Z,13.77
2016-11-20T11:54:29.942Z,14.01
2016-11-20T11:55:29.935Z,13.94
2016-11-20T11:56:29.918Z,13.77
2016-11-20T11:57:29.908Z,13.74
2016-11-20T11:58:30.220Z,13.8
2016-11-20T11:59:29.884Z,13.79
2016-11-20T12:00:30.190Z,13.88
2016-11-20T12:01:29.858Z,13.88
2016-11-20T12:02:29.849Z,13.99
2016-11-20T12:03:29.831Z,14.06
2016-11-20T12:04:29.826Z,14.01
2016-11-20T12:05:29.810Z,13.91
2016-11-20T12:06:29.803Z,13.95
2016-11-20T12:07:29.794Z,14.04
2016-11-20T12:08:29.774Z,14.04
2016-11-20T12:09:29.764Z,13.96
2016-11-20T12:10:29.751Z,14.02
2016-11-20T12:11:30.065Z,14.04
2016-11-20T12:12:29.727Z,13.91
2016-11-20T12:13:29.722Z,13.96
2016-11-20T12:14:29.703Z,13.94
2016-11-20T12:15:29.697Z,13.92
2016-11-20T12:16:29.676Z,13.92
2016-11-20T12:17:29.663Z,14.07
2016-11-20T12:18:29.688Z,14.1
2016-11-20T12:19:29.640Z,14.06
2016-11-20T12:20:29.959Z,14.19
2016-11-20T12:21:29.613Z,14.02
2016-11-20T12:22:29.603Z,14.1
2016-11-20T12:23:29.617Z,14.16
2016-11-20T12:24:29.578Z,14.13
2016-11-20T12:25:29.879Z,14.24
2016-11-20T12:26:29.551Z,14.14
2016-11-20T12:27:29.538Z,14.14
2016-11-20T12:28:29.525Z,14.16
2016-11-20T12:29:29.512Z,14.16
2016-11-20T12:30:29.500Z,14.2
2016-11-20T12:31:29.492Z,14.24
2016-11-20T12:32:29.792Z,14.16
2016-11-20T12:33:29.462Z,14.27
2016-11-20T12:34:29.448Z,14.27
2016-11-20T12:35:29.438Z,14.27
2016-11-20T12:36:29.424Z,14.13
2016-11-20T12:37:29.412Z,14.17
2016-11-20T12:38:29.664Z,14.14
2016-11-20T12:39:29.388Z,14.16
2016-11-20T12:40:29.375Z,14.24
2016-11-20T12:41:29.675Z,14.28
2016-11-20T12:42:29.347Z,14.28
2016-11-20T12:43:29.336Z,14.31
2016-11-20T12:44:29.324Z,14.34
2016-11-20T12:45:29.314Z,14.37
2016-11-20T12:46:29.923Z,14.38
2016-11-20T12:47:29.284Z,14.34
2016-11-20T12:48:29.286Z,14.37
2016-11-20T12:49:29.267Z,14.35
2016-11-20T12:50:29.253Z,14.37
2016-11-20T12:51:29.241Z,14.35
2016-11-20T12:52:29.231Z,14.21
2016-11-20T12:53:29.215Z,14.28
2016-11-20T12:54:29.196Z,14.29
2016-11-20T12:55:29.204Z,14.32
2016-11-20T12:56:29.170Z,14.27
2016-11-20T12:57:29.165Z,14.28
2016-11-20T12:58:29.145Z,14.24
2016-11-20T12:59:29.134Z,14.2
2016-11-20T13:00:29.118Z,14.2
2016-11-20T13:01:29.424Z,14.24
2016-11-20T13:02:29.089Z,14.19
2016-11-20T13:03:29.077Z,14.17
2016-11-20T13:04:29.070Z,14.24
2016-11-20T13:05:29.369Z,14.16
2016-11-20T13:06:29.044Z,14.17
2016-11-20T13:07:29.028Z,14.14
2016-11-20T13:08:29.035Z,14.13
2016-11-20T13:09:29.316Z,14.17
2016-11-20T13:10:28.989Z,14.17
2016-11-20T13:11:28.976Z,14.12
2016-11-20T13:12:28.965Z,14.24
2016-11-20T13:13:28.948Z,14.16
2016-11-20T13:14:28.969Z,14.32